Time;durP1;ratioP1;P1;durP2;ratioP2;P2;SDS_P1;SDS_P2;PMS_P1;PMS_P2;Temp;Humidity;BMP_temperature;BMP_pressure;BME280_temperature;BME280_humidity;BME280_pressure;Samples;Min_cycle;Max_cycle;Signal;HPM_P1;HPM_P2
2021/01/04 00:00:34;;;;;;;16.20;11.10;;;4.30;99.90;;;;;;4087735;29;20286;-95
2021/01/04 00:02:41;;;;;;;16.67;11.63;;;4.20;99.90;;;;;;4087594;29;20167;-95
2021/01/04 00:04:44;;;;;;;17.93;12.07;;;4.10;99.90;;;;;;4087664;29;20235;-95
2021/01/04 00:07:25;;;;;;;15.60;11.30;;;4.10;99.90;;;;;;4087585;29;20228;-94
2021/01/04 00:10:08;;;;;;;17.90;11.63;;;4.20;99.90;;;;;;4079285;29;20199;-95
2021/01/04 00:12:36;;;;;;;18.40;11.80;;;4.30;99.90;;;;;;4087978;29;20643;-94
2021/01/04 00:15:02;;;;;;;19.47;11.67;;;4.30;99.90;;;;;;4073976;29;20204;-94
2021/01/04 00:17:24;;;;;;;17.97;11.33;;;4.30;99.90;;;;;;4087533;29;20531;-94
2021/01/04 00:19:51;;;;;;;15.07;11.13;;;4.20;99.90;;;;;;4087544;29;20180;-95
2021/01/04 00:22:24;;;;;;;17.30;10.77;;;4.30;99.90;;;;;;4087600;29;20195;-93
2021/01/04 00:24:48;;;;;;;16.10;10.87;;;4.20;99.90;;;;;;4083521;29;20235;-93
2021/01/04 00:27:07;;;;;;;15.10;11.37;;;4.10;99.90;;;;;;4086089;29;20172;-93
2021/01/04 00:29:10;;;;;;;15.53;10.47;;;4.10;99.90;;;;;;4087204;28;20230;-94
2021/01/04 00:31:23;;;;;;;16.73;10.80;;;4.10;99.90;;;;;;4086431;29;20195;-94
2021/01/04 00:33:42;;;;;;;16.13;10.00;;;4.20;99.90;;;;;;4085642;29;20186;-94
2021/01/04 00:35:48;;;;;;;15.27;10.70;;;4.20;99.90;;;;;;4086023;29;20198;-92
2021/01/04 00:38:17;;;;;;;13.53;9.73;;;4.20;99.90;;;;;;4101593;28;20175;-92
2021/01/04 00:40:32;;;;;;;18.53;11.40;;;4.20;99.90;;;;;;4086507;29;20184;-93
2021/01/04 00:42:39;;;;;;;15.33;10.13;;;4.30;99.90;;;;;;4085817;29;20270;-92
2021/01/04 00:44:51;;;;;;;15.27;9.70;;;4.30;99.90;;;;;;4085726;29;20576;-91
2021/01/04 00:47:02;;;;;;;16.67;10.07;;;4.30;99.90;;;;;;4085877;29;20183;-92
2021/01/04 00:49:15;;;;;;;15.90;11.43;;;4.40;99.90;;;;;;4085679;29;20266;-92
2021/01/04 00:51:37;;;;;;;14.77;10.03;;;4.40;99.90;;;;;;4085967;29;20226;-94
2021/01/04 00:53:46;;;;;;;15.67;10.63;;;4.30;99.90;;;;;;4084945;29;20663;-93
2021/01/04 00:56:08;;;;;;;14.63;10.17;;;4.30;99.90;;;;;;4085441;29;20207;-92
2021/01/04 00:58:21;;;;;;;17.27;10.03;;;4.20;99.90;;;;;;4086225;29;20188;-92
2021/01/04 01:00:27;;;;;;;14.03;9.77;;;4.20;99.90;;;;;;4101363;29;20178;-92
2021/01/04 01:02:45;;;;;;;13.07;9.87;;;4.10;99.90;;;;;;4085531;29;20624;-92
2021/01/04 01:05:07;;;;;;;16.53;10.40;;;4.20;99.90;;;;;;4085526;29;20223;-92
2021/01/04 01:07:34;;;;;;;16.10;11.40;;;4.20;99.90;;;;;;4085705;29;20209;-94
2021/01/04 01:09:41;;;;;;;16.67;10.93;;;4.30;99.90;;;;;;4085697;29;20188;-93
2021/01/04 01:11:59;;;;;;;14.37;10.20;;;4.30;99.90;;;;;;4085798;29;20274;-92
2021/01/04 01:14:09;;;;;;;16.57;10.97;;;4.30;99.90;;;;;;4101303;29;20179;-92
2021/01/04 01:16:21;;;;;;;15.80;10.50;;;4.30;99.90;;;;;;4085692;29;20180;-92
2021/01/04 01:18:38;;;;;;;15.27;10.57;;;4.30;99.90;;;;;;4085160;29;20266;-92
2021/01/04 01:20:45;;;;;;;14.00;10.07;;;4.20;99.90;;;;;;4085340;29;20278;-94
2021/01/04 01:22:46;;;;;;;17.20;10.80;;;4.30;99.90;;;;;;4085203;29;20202;-94
2021/01/04 01:24:47;;;;;;;17.30;10.67;;;4.20;99.90;;;;;;4086091;29;20219;-94
2021/01/04 01:27:12;;;;;;;15.37;11.00;;;4.20;99.90;;;;;;4085315;29;20179;-92
2021/01/04 01:29:45;;;;;;;14.70;10.93;;;4.30;99.90;;;;;;4086846;29;20184;-94
2021/01/04 01:32:24;;;;;;;19.10;11.60;;;4.30;99.90;;;;;;4045022;29;20190;-93
2021/01/04 01:34:47;;;;;;;14.43;10.90;;;4.20;99.90;;;;;;4086548;29;20207;-96
2021/01/04 01:37:07;;;;;;;16.20;11.43;;;4.10;99.90;;;;;;4085682;29;20191;-92
2021/01/04 01:39:41;;;;;;;17.33;11.60;;;4.00;99.90;;;;;;4086711;29;20183;-95
2021/01/04 01:42:06;;;;;;;15.73;11.13;;;4.10;99.90;;;;;;4085518;29;20669;-93
2021/01/04 01:46:42;;;;;;;17.10;11.47;;;4.10;99.90;;;;;;4166726;23;20248;-93
2021/01/04 01:49:10;;;;;;;17.00;12.43;;;4.10;99.90;;;;;;4121326;28;20193;-94
2021/01/04 01:52:09;;;;;;;15.90;11.50;;;4.20;99.90;;;;;;4137074;28;20655;-95
2021/01/04 01:57:22;;;;;;;18.10;12.30;;;4.10;99.90;;;;;;4102642;28;20486;-95
2021/01/04 02:00:13;;;;;;;18.23;12.63;;;4.10;99.90;;;;;;4090177;28;20658;-94
2021/01/04 02:02:29;;;;;;;17.70;12.43;;;4.10;99.90;;;;;;3995399;29;20187;-95
2021/01/04 02:04:58;;;;;;;17.57;11.93;;;4.10;99.90;;;;;;4033142;29;20242;-96
2021/01/04 02:07:13;;;;;;;18.27;12.80;;;4.10;99.90;;;;;;4025732;29;20173;-95
2021/01/04 02:09:31;;;;;;;20.43;13.00;;;4.10;99.90;;;;;;4076208;29;20664;-94
2021/01/04 02:11:51;;;;;;;19.23;13.33;;;4.10;99.90;;;;;;4056610;29;20184;-95
2021/01/04 02:14:30;;;;;;;21.90;13.23;;;4.10;99.90;;;;;;4086756;29;20184;-95
2021/01/04 02:17:17;;;;;;;19.50;12.80;;;4.00;99.90;;;;;;4075362;29;20188;-95
2021/01/04 02:19:26;;;;;;;19.27;12.47;;;4.00;99.90;;;;;;4070173;23;20177;-95
2021/01/04 02:21:48;;;;;;;21.73;14.07;;;3.90;99.90;;;;;;4102324;28;20249;-95
2021/01/04 02:24:14;;;;;;;21.37;13.80;;;3.90;99.90;;;;;;4103585;29;20690;-95
2021/01/04 02:26:25;;;;;;;19.37;13.20;;;3.80;99.90;;;;;;4104829;29;20156;-95
2021/01/04 02:28:33;;;;;;;19.20;14.00;;;3.80;99.90;;;;;;4102606;29;20611;-95
2021/01/04 02:30:34;;;;;;;21.33;14.17;;;3.80;99.90;;;;;;4102738;29;20712;-95
2021/01/04 02:32:38;;;;;;;19.30;14.13;;;3.80;99.90;;;;;;4120577;28;20186;-94
2021/01/04 02:34:50;;;;;;;21.40;13.83;;;3.80;99.90;;;;;;4103960;28;20750;-95
2021/01/04 02:36:56;;;;;;;19.17;14.17;;;3.80;99.90;;;;;;4103308;23;20226;-94
2021/01/04 02:39:26;;;;;;;22.63;13.43;;;3.80;99.90;;;;;;4112098;28;20178;-95
2021/01/04 02:41:53;;;;;;;21.70;14.27;;;3.80;99.90;;;;;;4080007;29;20179;-95
2021/01/04 02:43:54;;;;;;;21.33;15.53;;;3.70;99.90;;;;;;4090046;29;20243;-96
2021/01/04 02:46:03;;;;;;;21.90;14.20;;;3.70;99.90;;;;;;4093343;29;20203;-95
2021/01/04 02:48:21;;;;;;;20.17;14.23;;;3.50;99.90;;;;;;4087526;29;20183;-94
2021/01/04 02:50:56;;;;;;;19.50;12.87;;;3.50;99.90;;;;;;4107856;28;20193;-95
2021/01/04 02:53:06;;;;;;;21.27;14.83;;;3.50;99.90;;;;;;4103234;29;20175;-95
2021/01/04 02:55:19;;;;;;;21.37;14.60;;;3.50;99.90;;;;;;4101049;28;20203;-94
2021/01/04 02:57:34;;;;;;;21.73;14.60;;;3.50;99.90;;;;;;4105039;28;20187;-94
2021/01/04 02:59:52;;;;;;;19.67;14.47;;;3.60;99.90;;;;;;4103236;29;20171;-96
2021/01/04 03:02:04;;;;;;;22.37;14.83;;;3.60;99.90;;;;;;4086138;29;20255;-95
2021/01/04 03:04:10;;;;;;;22.33;14.97;;;3.60;99.90;;;;;;4085343;29;20273;-95
2021/01/04 03:06:13;;;;;;;21.50;16.20;;;3.60;99.90;;;;;;4103954;28;20186;-95
2021/01/04 03:08:16;;;;;;;21.07;13.97;;;3.60;99.90;;;;;;4101754;29;20206;-93
2021/01/04 03:10:32;;;;;;;21.60;15.63;;;3.50;99.90;;;;;;4086077;29;20193;-95
2021/01/04 03:12:36;;;;;;;17.70;13.73;;;3.50;99.90;;;;;;4084658;29;20203;-95
2021/01/04 03:14:48;;;;;;;21.40;14.23;;;3.50;99.90;;;;;;4085179;29;20195;-94
2021/01/04 03:17:08;;;;;;;21.87;15.03;;;3.50;99.90;;;;;;4103815;28;20199;-94
2021/01/04 03:19:16;;;;;;;22.60;15.27;;;3.50;99.90;;;;;;4123550;28;20233;-94
2021/01/04 03:21:24;;;;;;;21.50;14.67;;;3.50;99.90;;;;;;4090874;29;20186;-93
2021/01/04 03:23:28;;;;;;;24.07;15.73;;;3.40;99.90;;;;;;4073720;29;20219;-94
2021/01/04 03:25:34;;;;;;;21.20;15.27;;;3.50;99.90;;;;;;4103916;28;20665;-93
2021/01/04 03:27:35;;;;;;;21.80;15.33;;;3.50;99.90;;;;;;4087744;29;20219;-95
2021/01/04 03:29:36;;;;;;;22.43;15.20;;;3.60;99.90;;;;;;4107946;28;20190;-94
2021/01/04 03:31:37;;;;;;;19.77;13.60;;;3.60;99.90;;;;;;4106964;29;20202;-94
2021/01/04 03:33:40;;;;;;;23.90;15.57;;;3.60;99.90;;;;;;4106326;29;20582;-95
2021/01/04 03:35:41;;;;;;;27.93;16.83;;;3.50;99.90;;;;;;4106207;28;20211;-94
2021/01/04 03:37:44;;;;;;;25.00;16.50;;;3.50;99.90;;;;;;4091202;29;20287;-95
2021/01/04 03:39:47;;;;;;;20.97;15.10;;;3.50;99.90;;;;;;4109700;28;20175;-94
2021/01/04 03:41:48;;;;;;;23.30;16.03;;;3.50;99.90;;;;;;4105063;29;20159;-94
2021/01/04 03:43:49;;;;;;;24.90;17.00;;;3.50;99.90;;;;;;4106404;29;20274;-96
2021/01/04 03:45:59;;;;;;;21.90;15.83;;;3.50;99.90;;;;;;4105333;28;20187;-95
2021/01/04 03:48:00;;;;;;;24.90;17.07;;;3.50;99.90;;;;;;4089185;29;20186;-96
2021/01/04 03:50:08;;;;;;;23.13;16.70;;;3.50;99.90;;;;;;4106450;29;20258;-94
2021/01/04 03:52:13;;;;;;;23.73;17.13;;;3.50;99.90;;;;;;4090532;29;20203;-95
2021/01/04 03:54:15;;;;;;;25.13;16.20;;;3.50;99.90;;;;;;4107310;28;20171;-95
2021/01/04 03:56:22;;;;;;;25.77;17.40;;;3.40;99.90;;;;;;4087602;29;20195;-95
2021/01/04 03:58:24;;;;;;;26.87;16.80;;;3.40;99.90;;;;;;4103485;29;20173;-94
2021/01/04 04:00:26;;;;;;;26.60;17.60;;;3.50;99.90;;;;;;4105550;28;20179;-95
2021/01/04 04:02:27;;;;;;;26.80;17.97;;;3.50;99.90;;;;;;4122113;28;20190;-96
2021/01/04 04:04:29;;;;;;;26.20;16.87;;;3.50;99.90;;;;;;4071384;29;20235;-94
2021/01/04 04:06:29;;;;;;;26.03;17.53;;;3.50;99.90;;;;;;4103874;29;20733;-95
2021/01/04 04:08:30;;;;;;;25.70;17.53;;;3.60;99.90;;;;;;4104868;29;20174;-95
2021/01/04 04:10:32;;;;;;;27.10;19.20;;;3.60;99.90;;;;;;4104018;29;20210;-93
2021/01/04 04:12:37;;;;;;;24.47;17.77;;;3.50;99.90;;;;;;4108494;29;20210;-96
2021/01/04 04:14:39;;;;;;;27.93;18.03;;;3.50;99.90;;;;;;4102688;28;20543;-94
2021/01/04 04:16:41;;;;;;;26.77;18.93;;;3.40;99.90;;;;;;4105641;28;20238;-95
2021/01/04 04:18:42;;;;;;;23.70;17.63;;;3.40;99.90;;;;;;4105990;29;20187;-95
2021/01/04 04:20:43;;;;;;;28.83;19.13;;;3.30;99.90;;;;;;4104724;29;20190;-94
2021/01/04 04:22:46;;;;;;;27.83;18.40;;;3.30;99.90;;;;;;4088273;29;20263;-93
2021/01/04 04:24:47;;;;;;;26.00;18.27;;;3.20;99.90;;;;;;4101999;28;20226;-94
2021/01/04 04:26:51;;;;;;;23.30;16.03;;;3.20;99.90;;;;;;4085688;29;20211;-94
2021/01/04 04:28:52;;;;;;;25.17;16.27;;;3.20;99.90;;;;;;4086100;29;20172;-94
2021/01/04 04:30:54;;;;;;;27.70;19.10;;;3.20;99.90;;;;;;4088133;29;20180;-94
2021/01/04 04:32:57;;;;;;;28.03;19.23;;;3.20;99.90;;;;;;4086663;29;20179;-95
2021/01/04 04:34:57;;;;;;;29.20;20.17;;;3.20;99.90;;;;;;4095848;28;20203;-95
2021/01/04 04:37:03;;;;;;;27.30;18.60;;;3.10;99.90;;;;;;4102733;28;20257;-94
2021/01/04 04:39:04;;;;;;;29.17;19.00;;;3.10;99.90;;;;;;4104331;29;20171;-94
2021/01/04 04:41:07;;;;;;;27.70;18.27;;;3.10;99.90;;;;;;4103707;29;20194;-94
2021/01/04 04:43:25;;;;;;;27.57;18.90;;;3.20;99.90;;;;;;4105641;29;20279;-94
2021/01/04 04:45:26;;;;;;;27.90;19.97;;;3.20;99.90;;;;;;4102663;28;20257;-94
2021/01/04 04:48:05;;;;;;;29.50;19.17;;;3.20;99.90;;;;;;4088993;29;20192;-94
2021/01/04 04:50:18;;;;;;;26.00;17.47;;;3.20;99.90;;;;;;4088994;29;20259;-95
2021/01/04 04:52:46;;;;;;;24.63;17.80;;;3.20;99.90;;;;;;4105924;29;20302;-93
2021/01/04 04:55:03;;;;;;;28.00;18.30;;;3.10;99.90;;;;;;4105258;29;20214;-94
2021/01/04 04:57:13;;;;;;;28.93;18.77;;;3.10;99.90;;;;;;4087588;29;20176;-95
2021/01/04 04:59:55;;;;;;;19.33;14.20;;;3.10;99.90;;;;;;4119586;28;20182;-94
2021/01/04 05:02:21;;;;;;;26.37;17.57;;;3.10;99.90;;;;;;4105153;28;20171;-94
2021/01/04 05:04:44;;;;;;;22.73;17.30;;;3.10;99.90;;;;;;4106926;29;20219;-94
2021/01/04 05:06:56;;;;;;;25.33;16.73;;;3.10;99.90;;;;;;4087796;29;20655;-94
2021/01/04 05:09:19;;;;;;;24.93;17.13;;;3.10;99.90;;;;;;4105252;29;20170;-95
2021/01/04 05:11:29;;;;;;;21.27;15.73;;;3.10;99.90;;;;;;4103968;29;20554;-94
2021/01/04 05:13:46;;;;;;;23.07;16.97;;;3.10;99.90;;;;;;4101133;28;20254;-95
2021/01/04 05:16:08;;;;;;;20.53;15.47;;;3.00;99.90;;;;;;4104947;29;20294;-94
2021/01/04 05:18:24;;;;;;;22.70;16.10;;;2.90;99.90;;;;;;4104559;29;20638;-94
2021/01/04 05:21:13;;;;;;;20.03;14.37;;;2.90;99.90;;;;;;4105618;29;20262;-95
2021/01/04 05:23:47;;;;;;;21.93;14.60;;;2.90;99.90;;;;;;4106491;29;20167;-94
2021/01/04 05:26:37;;;;;;;18.87;12.80;;;2.90;99.90;;;;;;4139263;23;20230;-95
2021/01/04 05:28:59;;;;;;;21.07;14.27;;;2.90;99.90;;;;;;4083976;28;20327;-94
2021/01/04 05:31:24;;;;;;;25.33;15.57;;;2.90;99.90;;;;;;4088684;29;20187;-94
2021/01/04 05:33:54;;;;;;;23.67;15.63;;;3.00;99.90;;;;;;4088431;29;20286;-96
2021/01/04 05:36:20;;;;;;;21.07;15.17;;;3.00;99.90;;;;;;4088651;29;20722;-94
2021/01/04 05:38:41;;;;;;;22.00;15.60;;;3.00;99.90;;;;;;4087522;29;20179;-95
2021/01/04 05:41:01;;;;;;;23.07;16.17;;;3.00;99.90;;;;;;4085476;29;20179;-95
2021/01/04 05:43:13;;;;;;;22.67;15.50;;;3.00;99.90;;;;;;4087842;28;20250;-94
2021/01/04 05:45:37;;;;;;;21.10;15.30;;;3.00;99.90;;;;;;4090846;29;20206;-94
2021/01/04 05:47:41;;;;;;;23.03;16.43;;;3.00;99.90;;;;;;4071995;29;20172;-95
2021/01/04 05:49:55;;;;;;;26.13;17.93;;;3.00;99.90;;;;;;4102044;29;20213;-94
2021/01/04 05:51:57;;;;;;;25.87;18.23;;;3.00;99.90;;;;;;4088200;29;20167;-95
2021/01/04 05:54:04;;;;;;;25.63;17.63;;;2.90;99.90;;;;;;4092555;28;20163;-94
2021/01/04 05:56:36;;;;;;;25.70;17.77;;;2.90;99.90;;;;;;4087855;28;20679;-93
2021/01/04 05:58:48;;;;;;;24.03;16.60;;;3.00;99.90;;;;;;4091182;29;20160;-94
2021/01/04 06:00:49;;;;;;;23.93;17.67;;;2.90;99.90;;;;;;4079102;29;20182;-94
2021/01/04 06:03:02;;;;;;;25.57;17.00;;;3.00;99.90;;;;;;4102120;29;20606;-94
2021/01/04 06:05:12;;;;;;;23.57;17.00;;;3.00;99.90;;;;;;4089385;29;20631;-95
2021/01/04 06:07:13;;;;;;;26.43;17.33;;;3.00;99.90;;;;;;4090824;29;20164;-94
2021/01/04 06:09:16;;;;;;;26.43;17.67;;;3.00;99.90;;;;;;4070457;29;20207;-94
2021/01/04 06:11:19;;;;;;;26.27;17.97;;;3.10;99.90;;;;;;4104523;29;20186;-94
2021/01/04 06:13:56;;;;;;;26.90;18.97;;;3.10;99.90;;;;;;4087085;29;20197;-95
2021/01/04 06:16:24;;;;;;;26.67;17.97;;;3.00;99.90;;;;;;4089234;29;20178;-94
2021/01/04 06:18:28;;;;;;;24.60;17.77;;;3.00;99.90;;;;;;4087473;29;20179;-93
2021/01/04 06:20:56;;;;;;;25.90;16.93;;;3.00;99.90;;;;;;4086229;29;20187;-95
2021/01/04 06:23:00;;;;;;;27.40;18.50;;;3.10;99.90;;;;;;4056410;29;20274;-95
2021/01/04 06:25:06;;;;;;;24.77;17.60;;;3.10;99.90;;;;;;4073559;29;20220;-95
2021/01/04 06:27:32;;;;;;;27.03;17.90;;;3.00;99.90;;;;;;4088323;29;20171;-93
2021/01/04 06:29:50;;;;;;;27.83;19.30;;;3.10;99.90;;;;;;4086758;29;20179;-94
2021/01/04 06:31:57;;;;;;;28.23;17.40;;;3.00;99.90;;;;;;4104509;29;20182;-94
2021/01/04 06:34:27;;;;;;;27.23;18.23;;;3.00;99.90;;;;;;4089610;28;20175;-94
2021/01/04 06:36:36;;;;;;;28.67;20.17;;;3.00;99.90;;;;;;4085611;29;20199;-95
2021/01/04 06:38:42;;;;;;;27.67;18.00;;;3.00;99.90;;;;;;4085685;29;20195;-95
2021/01/04 06:40:46;;;;;;;25.60;17.53;;;3.00;99.90;;;;;;4091162;28;20180;-95
2021/01/04 06:43:25;;;;;;;22.20;14.17;;;3.00;99.90;;;;;;4091594;29;20183;-95
2021/01/04 06:46:07;;;;;;;25.00;16.67;;;3.10;99.90;;;;;;4089937;23;20227;-95
2021/01/04 06:48:20;;;;;;;29.43;18.40;;;3.20;99.90;;;;;;4086172;29;20298;-96
2021/01/04 06:50:30;;;;;;;28.73;19.33;;;3.20;99.90;;;;;;4073727;29;20192;-94
2021/01/04 06:52:55;;;;;;;26.23;17.80;;;3.20;99.90;;;;;;4091847;29;20172;-93
2021/01/04 06:55:18;;;;;;;30.63;18.83;;;3.10;99.90;;;;;;4092157;29;20187;-95
2021/01/04 06:58:09;;;;;;;28.73;20.50;;;3.10;99.90;;;;;;4092471;29;20183;-94
2021/01/04 07:00:21;;;;;;;28.20;18.30;;;3.00;99.90;;;;;;4069063;29;20192;-93
2021/01/04 07:02:53;;;;;;;28.33;18.77;;;3.00;99.90;;;;;;4090450;29;20175;-94
2021/01/04 07:05:25;;;;;;;29.87;19.93;;;3.00;99.90;;;;;;4078414;29;20231;-95
2021/01/04 07:08:05;;;;;;;24.70;16.17;;;3.00;99.90;;;;;;4094777;29;20199;-94
2021/01/04 07:10:19;;;;;;;24.37;17.37;;;3.10;99.90;;;;;;4028535;29;20188;-94
2021/01/04 07:13:18;;;;;;;30.03;20.80;;;3.10;99.90;;;;;;4031669;29;20180;-95
2021/01/04 07:15:28;;;;;;;33.77;20.73;;;3.10;99.90;;;;;;4039945;23;20695;-94
2021/01/04 07:17:32;;;;;;;28.43;19.67;;;3.10;99.90;;;;;;4091431;29;20187;-95
2021/01/04 07:19:35;;;;;;;27.27;19.10;;;3.10;99.90;;;;;;4088530;29;20180;-95
2021/01/04 07:21:45;;;;;;;28.77;20.07;;;3.00;99.90;;;;;;4105552;29;20187;-94
2021/01/04 07:24:08;;;;;;;30.93;19.43;;;3.10;99.90;;;;;;4090881;29;20250;-96
2021/01/04 07:26:39;;;;;;;28.27;18.97;;;3.10;99.90;;;;;;4090871;29;20179;-94
2021/01/04 07:29:02;;;;;;;28.57;19.40;;;3.10;99.90;;;;;;4092243;28;20194;-96
2021/01/04 07:31:14;;;;;;;25.40;17.33;;;3.10;99.90;;;;;;4075502;29;20251;-95
2021/01/04 07:33:25;;;;;;;29.77;20.07;;;3.00;99.90;;;;;;4074638;29;20204;-95
2021/01/04 07:36:13;;;;;;;28.30;19.47;;;3.00;99.90;;;;;;4089502;29;20706;-95
2021/01/04 07:38:54;;;;;;;27.70;18.47;;;3.10;99.90;;;;;;4083612;23;20238;-93
2021/01/04 07:41:18;;;;;;;25.80;17.83;;;3.20;99.90;;;;;;4076133;29;20267;-95
2021/01/04 07:43:40;;;;;;;27.73;18.50;;;3.20;99.90;;;;;;4092068;29;20592;-95
2021/01/04 07:46:03;;;;;;;28.33;18.93;;;3.20;99.90;;;;;;4091166;29;20226;-94
2021/01/04 07:48:23;;;;;;;27.50;18.17;;;3.20;99.90;;;;;;4075794;29;20203;-96
2021/01/04 07:50:45;;;;;;;27.10;18.83;;;3.20;99.90;;;;;;4043900;29;20195;-95
2021/01/04 07:53:12;;;;;;;30.10;21.13;;;3.20;99.90;;;;;;4090057;29;20256;-94
2021/01/04 07:55:47;;;;;;;29.27;19.87;;;3.20;99.90;;;;;;4089678;29;20203;-94
2021/01/04 07:58:08;;;;;;;26.43;16.60;;;3.10;99.90;;;;;;4072037;29;20265;-94
2021/01/04 08:00:48;;;;;;;30.47;18.00;;;3.20;99.90;;;;;;4087727;29;20208;-92
2021/01/04 08:03:26;;;;;;;28.83;19.60;;;3.30;99.90;;;;;;4090317;29;20182;-94
2021/01/04 08:06:00;;;;;;;28.97;19.13;;;3.20;99.90;;;;;;4072123;29;20222;-92
2021/01/04 08:08:33;;;;;;;32.77;19.87;;;3.20;99.90;;;;;;4082465;29;20670;-93
2021/01/04 08:11:13;;;;;;;29.03;16.20;;;3.20;99.90;;;;;;4073816;29;20195;-93
2021/01/04 08:13:43;;;;;;;22.93;14.30;;;3.20;99.90;;;;;;4087786;29;20316;-93
2021/01/04 08:15:59;;;;;;;27.47;17.90;;;3.20;99.90;;;;;;4074763;29;20619;-93
2021/01/04 08:18:07;;;;;;;31.30;19.90;;;3.20;99.90;;;;;;4091466;29;20183;-93
2021/01/04 08:20:10;;;;;;;26.93;18.23;;;3.30;99.90;;;;;;4074374;29;20199;-93
2021/01/04 08:22:38;;;;;;;30.37;18.43;;;3.20;99.90;;;;;;4072969;29;20227;-93
2021/01/04 08:24:45;;;;;;;31.63;20.30;;;3.20;99.90;;;;;;4072051;29;20269;-93
2021/01/04 08:27:07;;;;;;;31.97;20.27;;;3.30;99.90;;;;;;4087727;29;20175;-95
2021/01/04 08:29:29;;;;;;;30.37;18.20;;;3.30;99.90;;;;;;4073386;29;20220;-92
2021/01/04 08:31:50;;;;;;;32.93;21.53;;;3.40;99.90;;;;;;4088531;29;20186;-93
2021/01/04 08:33:58;;;;;;;35.07;23.50;;;3.60;99.90;;;;;;4074440;29;20172;-94
2021/01/04 08:35:59;;;;;;;33.53;20.50;;;3.40;99.90;;;;;;4070569;29;20179;-93
2021/01/04 08:40:27;;;;;;;35.93;23.43;;;3.40;99.90;;;;;;4070458;29;20291;-94
2021/01/04 08:42:31;;;;;;;41.73;22.70;;;3.40;99.90;;;;;;4056906;29;20176;-93
2021/01/04 08:44:35;;;;;;;33.93;20.87;;;3.50;99.90;;;;;;4072835;29;20220;-93
2021/01/04 08:46:40;;;;;;;31.67;17.47;;;3.50;99.90;;;;;;4056041;29;20181;-92
2021/01/04 08:48:41;;;;;;;33.87;20.07;;;3.50;99.90;;;;;;4039589;29;20181;-92
2021/01/04 08:50:45;;;;;;;34.10;20.80;;;3.40;99.90;;;;;;4056456;29;20177;-92
2021/01/04 08:52:54;;;;;;;33.83;20.87;;;3.40;99.90;;;;;;4057037;29;20189;-93
2021/01/04 08:54:59;;;;;;;31.70;19.67;;;3.50;99.90;;;;;;4042073;29;20213;-93
2021/01/04 08:57:05;;;;;;;33.10;21.70;;;3.50;99.90;;;;;;4038454;29;20181;-93
2021/01/04 08:59:26;;;;;;;28.70;18.53;;;3.50;99.90;;;;;;4057991;29;20185;-93
2021/01/04 09:01:27;;;;;;;32.03;19.73;;;3.40;99.90;;;;;;4056994;29;20187;-92
2021/01/04 09:03:32;;;;;;;30.70;20.83;;;3.20;99.90;;;;;;4038545;29;20177;-93
2021/01/04 09:05:36;;;;;;;35.40;23.27;;;3.20;99.90;;;;;;4039343;29;20230;-92
2021/01/04 09:07:53;;;;;;;32.37;19.90;;;3.20;99.90;;;;;;4042243;29;20208;-92
2021/01/04 09:09:59;;;;;;;33.73;23.77;;;3.30;99.90;;;;;;4071145;29;20172;-93
2021/01/04 09:12:25;;;;;;;28.80;19.30;;;3.30;99.90;;;;;;4056053;29;20761;-93
2021/01/04 09:14:56;;;;;;;33.60;22.07;;;3.20;99.90;;;;;;4055506;29;20207;-92
2021/01/04 09:16:57;;;;;;;34.47;21.53;;;3.20;99.90;;;;;;4037117;29;20224;-94
2021/01/04 09:19:32;;;;;;;32.70;17.93;;;3.30;99.90;;;;;;4040195;29;20173;-92
2021/01/04 09:21:40;;;;;;;32.90;22.57;;;3.30;99.90;;;;;;4071903;23;20180;-92
2021/01/04 09:23:42;;;;;;;31.90;21.47;;;3.30;99.90;;;;;;4085401;29;20679;-93
2021/01/04 09:26:07;;;;;;;32.40;20.70;;;3.40;99.90;;;;;;4086281;29;20200;-93
2021/01/04 09:28:09;;;;;;;27.50;19.77;;;3.30;99.90;;;;;;4086748;29;20191;-93
2021/01/04 09:30:10;;;;;;;30.50;19.33;;;3.30;99.90;;;;;;4106185;28;20278;-92
2021/01/04 09:32:14;;;;;;;33.80;21.90;;;3.30;99.90;;;;;;4105337;29;20202;-93
2021/01/04 09:34:18;;;;;;;37.63;23.13;;;3.30;99.90;;;;;;4086892;29;20730;-92
2021/01/04 09:36:20;;;;;;;37.73;22.63;;;3.40;99.90;;;;;;4085565;29;20187;-92
2021/01/04 09:38:25;;;;;;;19.73;12.97;;;3.40;99.90;;;;;;4103906;28;20222;-95
2021/01/04 09:40:28;;;;;;;29.77;21.13;;;3.40;99.90;;;;;;4101784;29;20266;-94
2021/01/04 09:42:34;;;;;;;31.67;20.63;;;3.40;99.90;;;;;;4100344;29;20194;-94
2021/01/04 09:44:35;;;;;;;28.00;19.43;;;3.40;99.90;;;;;;4085218;29;20215;-94
2021/01/04 09:46:55;;;;;;;29.40;21.43;;;3.50;99.90;;;;;;4102076;28;20234;-93
2021/01/04 09:49:00;;;;;;;28.00;19.07;;;3.50;99.90;;;;;;4104954;29;20269;-95
2021/01/04 09:51:05;;;;;;;29.50;19.80;;;3.50;99.90;;;;;;4086114;28;20182;-93
2021/01/04 09:53:31;;;;;;;31.20;19.03;;;3.50;99.90;;;;;;4102890;29;20222;-92
2021/01/04 09:55:37;;;;;;;26.83;18.63;;;3.40;99.90;;;;;;4103052;29;20199;-93
2021/01/04 09:57:43;;;;;;;27.07;19.80;;;3.50;99.90;;;;;;4088349;29;20187;-93
2021/01/04 09:59:44;;;;;;;28.23;18.97;;;3.60;99.90;;;;;;4100326;29;20175;-92
2021/01/04 10:03:59;;;;;;;28.77;18.80;;;3.70;99.90;;;;;;4071994;29;20699;-93
2021/01/04 10:06:00;;;;;;;26.30;19.03;;;3.70;99.90;;;;;;4091696;29;20180;-93
2021/01/04 10:08:05;;;;;;;27.13;17.33;;;3.60;99.90;;;;;;4086501;29;20264;-93
2021/01/04 10:10:15;;;;;;;26.77;18.93;;;3.60;99.90;;;;;;4101862;28;20189;-92
2021/01/04 10:12:18;;;;;;;28.20;18.17;;;3.60;99.90;;;;;;4087410;29;20183;-93
2021/01/04 10:14:22;;;;;;;28.20;20.90;;;3.60;99.90;;;;;;4086269;29;20192;-90
2021/01/04 10:16:25;;;;;;;27.07;18.50;;;3.60;99.90;;;;;;4088172;29;20513;-94
2021/01/04 10:18:47;;;;;;;45.83;26.77;;;3.60;99.90;;;;;;4104754;28;20274;-91
2021/01/04 10:20:53;;;;;;;26.50;18.97;;;3.50;99.90;;;;;;4086609;29;20176;-92
2021/01/04 10:22:57;;;;;;;25.73;18.93;;;3.50;99.90;;;;;;4087213;29;20675;-94
2021/01/04 10:25:08;;;;;;;30.63;20.27;;;3.50;99.90;;;;;;4097661;29;20225;-92
2021/01/04 10:27:16;;;;;;;26.27;18.20;;;3.50;99.90;;;;;;4105733;28;20179;-91
2021/01/04 10:29:25;;;;;;;30.93;20.57;;;3.60;99.90;;;;;;4127297;28;20189;-92
2021/01/04 10:31:28;;;;;;;28.13;19.57;;;3.50;99.90;;;;;;4106576;29;20163;-92
2021/01/04 10:33:34;;;;;;;28.93;20.37;;;3.50;99.90;;;;;;4090795;29;20258;-93
2021/01/04 10:35:35;;;;;;;30.57;20.37;;;3.50;99.90;;;;;;4104911;29;20198;-92
2021/01/04 10:37:43;;;;;;;29.10;20.80;;;3.50;99.90;;;;;;4105309;29;20194;-92
2021/01/04 10:39:44;;;;;;;29.90;21.10;;;3.60;99.90;;;;;;4105564;29;20170;-93
2021/01/04 10:41:47;;;;;;;27.20;17.87;;;3.60;99.90;;;;;;4094030;29;20179;-91
2021/01/04 10:43:48;;;;;;;28.47;19.97;;;3.40;99.90;;;;;;4067159;29;20197;-92
2021/01/04 10:45:49;;;;;;;28.30;19.30;;;3.40;99.90;;;;;;4094928;29;20203;-94
2021/01/04 10:48:07;;;;;;;26.13;17.87;;;3.40;99.90;;;;;;4111290;28;20171;-93
2021/01/04 10:50:35;;;;;;;27.87;19.27;;;3.60;99.90;;;;;;4079091;29;20876;-93
2021/01/04 10:52:36;;;;;;;26.20;18.47;;;3.50;99.90;;;;;;4077171;29;20276;-92
2021/01/04 10:54:42;;;;;;;29.00;20.93;;;3.60;99.90;;;;;;4094492;28;20278;-92
2021/01/04 10:57:26;;;;;;;28.47;20.50;;;3.60;99.90;;;;;;4079237;29;20176;-92
2021/01/04 10:59:33;;;;;;;28.23;20.83;;;3.50;99.90;;;;;;4062527;29;20508;-93
2021/01/04 11:01:40;;;;;;;30.97;21.80;;;3.50;99.90;;;;;;4095051;29;20183;-91
2021/01/04 11:03:53;;;;;;;27.90;20.40;;;3.60;99.90;;;;;;4094447;29;20205;-93
2021/01/04 11:05:53;;;;;;;29.37;21.37;;;3.60;99.90;;;;;;4100302;29;20737;-92
2021/01/04 11:07:57;;;;;;;25.17;17.40;;;3.50;99.90;;;;;;4105696;28;20179;-94
2021/01/04 11:10:28;;;;;;;27.03;19.13;;;3.50;99.90;;;;;;4079548;29;20191;-92
2021/01/04 11:12:28;;;;;;;28.77;21.47;;;3.50;99.90;;;;;;4079615;29;20172;-92
2021/01/04 11:14:31;;;;;;;30.07;21.90;;;3.40;99.90;;;;;;4079607;29;20737;-92
2021/01/04 11:16:44;;;;;;;33.57;21.83;;;3.40;99.90;;;;;;4083626;29;20172;-94
2021/01/04 11:18:48;;;;;;;29.93;21.17;;;3.40;99.90;;;;;;4080396;29;20688;-94
2021/01/04 11:20:49;;;;;;;27.93;19.20;;;3.40;99.90;;;;;;4064517;29;20188;-92
2021/01/04 11:23:12;;;;;;;29.63;21.47;;;3.50;99.90;;;;;;4075733;29;20224;-94
2021/01/04 11:25:13;;;;;;;27.33;20.13;;;3.50;99.90;;;;;;4091039;29;20246;-93
2021/01/04 11:29:17;;;;;;;29.07;20.87;;;3.60;99.90;;;;;;4093315;29;20297;-93
2021/01/04 11:31:18;;;;;;;29.20;18.97;;;3.50;99.90;;;;;;4062477;29;20176;-94
2021/01/04 11:33:24;;;;;;;32.17;23.73;;;3.50;99.90;;;;;;4078445;29;20187;-94
2021/01/04 11:35:27;;;;;;;30.87;21.57;;;3.50;99.90;;;;;;4064587;29;20228;-94
2021/01/04 11:37:29;;;;;;;30.97;21.67;;;3.60;99.90;;;;;;4055276;29;20169;-93
2021/01/04 11:39:30;;;;;;;25.00;18.03;;;3.60;99.90;;;;;;4062186;29;20321;-95
2021/01/04 11:41:33;;;;;;;31.60;20.40;;;3.60;99.90;;;;;;4085665;29;20226;-94